sensor_id;sensor_type;location;lat;lon;timestamp;P1;durP1;ratioP1;P2;durP2;ratioP2
74528;SDS011;63009;52.584;5.932;2022-11-15T00:02:04;25.73;;;12.23;;
74528;SDS011;63009;52.584;5.932;2022-11-15T00:04:29;24.13;;;13.27;;
74528;SDS011;63009;52.584;5.932;2022-11-15T00:06:55;28.33;;;13.67;;
74528;SDS011;63009;52.584;5.932;2022-11-15T00:09:20;27.37;;;12.47;;
74528;SDS011;63009;52.584;5.932;2022-11-15T00:11:45;27.93;;;12.87;;
74528;SDS011;63009;52.584;5.932;2022-11-15T00:14:11;28.27;;;13.73;;
74528;SDS011;63009;52.584;5.932;2022-11-15T00:16:36;25.07;;;12.63;;
74528;SDS011;63009;52.584;5.932;2022-11-15T00:19:02;25.15;;;12.82;;
74528;SDS011;63009;52.584;5.932;2022-11-15T00:21:27;24.80;;;11.27;;
74528;SDS011;63009;52.584;5.932;2022-11-15T00:23:52;23.90;;;12.17;;
74528;SDS011;63009;52.584;5.932;2022-11-15T00:26:17;26.47;;;13.67;;
74528;SDS011;63009;52.584;5.932;2022-11-15T00:28:44;25.27;;;12.85;;
74528;SDS011;63009;52.584;5.932;2022-11-15T00:31:11;26.70;;;13.87;;
74528;SDS011;63009;52.584;5.932;2022-11-15T00:33:38;27.55;;;13.13;;
74528;SDS011;63009;52.584;5.932;2022-11-15T00:36:04;33.25;;;17.02;;
74528;SDS011;63009;52.584;5.932;2022-11-15T00:38:37;31.35;;;16.67;;
74528;SDS011;63009;52.584;5.932;2022-11-15T00:41:04;29.42;;;13.77;;
74528;SDS011;63009;52.584;5.932;2022-11-15T00:43:31;29.08;;;14.20;;
74528;SDS011;63009;52.584;5.932;2022-11-15T00:45:57;27.58;;;15.27;;
74528;SDS011;63009;52.584;5.932;2022-11-15T00:48:23;28.63;;;13.50;;
74528;SDS011;63009;52.584;5.932;2022-11-15T00:50:49;30.80;;;14.73;;
74528;SDS011;63009;52.584;5.932;2022-11-15T00:53:14;26.52;;;13.77;;
74528;SDS011;63009;52.584;5.932;2022-11-15T00:55:40;27.27;;;12.73;;
74528;SDS011;63009;52.584;5.932;2022-11-15T00:58:05;28.93;;;13.40;;
74528;SDS011;63009;52.584;5.932;2022-11-15T01:00:30;26.70;;;12.97;;
74528;SDS011;63009;52.584;5.932;2022-11-15T01:02:56;28.20;;;13.13;;
74528;SDS011;63009;52.584;5.932;2022-11-15T01:05:21;25.92;;;13.00;;
74528;SDS011;63009;52.584;5.932;2022-11-15T01:07:47;30.48;;;15.57;;
74528;SDS011;63009;52.584;5.932;2022-11-15T01:10:16;29.63;;;15.10;;
74528;SDS011;63009;52.584;5.932;2022-11-15T01:12:41;31.47;;;14.90;;
74528;SDS011;63009;52.584;5.932;2022-11-15T01:15:07;31.50;;;14.63;;
74528;SDS011;63009;52.584;5.932;2022-11-15T01:17:32;30.42;;;13.80;;
74528;SDS011;63009;52.584;5.932;2022-11-15T01:19:58;31.03;;;14.33;;
74528;SDS011;63009;52.584;5.932;2022-11-15T01:22:23;27.07;;;13.80;;
74528;SDS011;63009;52.584;5.932;2022-11-15T01:24:51;28.80;;;14.70;;
74528;SDS011;63009;52.584;5.932;2022-11-15T01:27:17;30.10;;;14.50;;
74528;SDS011;63009;52.584;5.932;2022-11-15T01:29:42;32.20;;;13.83;;
74528;SDS011;63009;52.584;5.932;2022-11-15T01:32:07;31.00;;;15.93;;
74528;SDS011;63009;52.584;5.932;2022-11-15T01:34:32;29.80;;;14.23;;
74528;SDS011;63009;52.584;5.932;2022-11-15T01:36:58;36.80;;;15.67;;
74528;SDS011;63009;52.584;5.932;2022-11-15T01:39:23;28.02;;;14.23;;
74528;SDS011;63009;52.584;5.932;2022-11-15T01:41:49;33.35;;;15.85;;
74528;SDS011;63009;52.584;5.932;2022-11-15T01:46:58;32.65;;;13.90;;
74528;SDS011;63009;52.584;5.932;2022-11-15T01:49:27;33.28;;;13.48;;
74528;SDS011;63009;52.584;5.932;2022-11-15T01:51:57;35.00;;;14.82;;
74528;SDS011;63009;52.584;5.932;2022-11-15T01:54:23;39.97;;;16.77;;
74528;SDS011;63009;52.584;5.932;2022-11-15T01:56:53;36.10;;;16.63;;
74528;SDS011;63009;52.584;5.932;2022-11-15T01:59:31;35.53;;;15.05;;
74528;SDS011;63009;52.584;5.932;2022-11-15T02:01:58;38.13;;;16.65;;
74528;SDS011;63009;52.584;5.932;2022-11-15T02:04:31;41.17;;;17.10;;
74528;SDS011;63009;52.584;5.932;2022-11-15T02:07:00;40.25;;;16.75;;
74528;SDS011;63009;52.584;5.932;2022-11-15T02:09:28;37.45;;;16.88;;
74528;SDS011;63009;52.584;5.932;2022-11-15T02:11:54;42.65;;;16.75;;
74528;SDS011;63009;52.584;5.932;2022-11-15T02:14:20;38.42;;;16.10;;
74528;SDS011;63009;52.584;5.932;2022-11-15T02:28:38;38.88;;;15.13;;
74528;SDS011;63009;52.584;5.932;2022-11-15T02:34:02;41.65;;;17.45;;
74528;SDS011;63009;52.584;5.932;2022-11-15T02:45:01;39.20;;;16.50;;
74528;SDS011;63009;52.584;5.932;2022-11-15T02:47:30;41.58;;;16.45;;
74528;SDS011;63009;52.584;5.932;2022-11-15T02:50:05;43.25;;;17.35;;
74528;SDS011;63009;52.584;5.932;2022-11-15T02:52:33;42.97;;;15.75;;
74528;SDS011;63009;52.584;5.932;2022-11-15T02:54:59;38.90;;;15.53;;
74528;SDS011;63009;52.584;5.932;2022-11-15T02:58:31;39.00;;;16.13;;
74528;SDS011;63009;52.584;5.932;2022-11-15T03:00:35;45.03;;;16.00;;
74528;SDS011;63009;52.584;5.932;2022-11-15T03:03:29;50.20;;;20.77;;
74528;SDS011;63009;52.584;5.932;2022-11-15T03:06:14;37.03;;;15.95;;
74528;SDS011;63009;52.584;5.932;2022-11-15T03:08:51;45.05;;;17.42;;
74528;SDS011;63009;52.584;5.932;2022-11-15T03:11:27;41.13;;;17.42;;
74528;SDS011;63009;52.584;5.932;2022-11-15T03:17:04;38.10;;;16.75;;
74528;SDS011;63009;52.584;5.932;2022-11-15T03:22:09;40.97;;;17.38;;
74528;SDS011;63009;52.584;5.932;2022-11-15T03:24:38;40.38;;;17.52;;
74528;SDS011;63009;52.584;5.932;2022-11-15T03:27:06;37.67;;;15.88;;
74528;SDS011;63009;52.584;5.932;2022-11-15T03:29:34;34.17;;;15.65;;
74528;SDS011;63009;52.584;5.932;2022-11-15T03:32:05;34.47;;;14.82;;
74528;SDS011;63009;52.584;5.932;2022-11-15T03:37:05;40.63;;;16.85;;
74528;SDS011;63009;52.584;5.932;2022-11-15T03:39:31;38.92;;;18.15;;
74528;SDS011;63009;52.584;5.932;2022-11-15T03:47:17;41.70;;;18.55;;
74528;SDS011;63009;52.584;5.932;2022-11-15T03:49:47;42.00;;;17.80;;
74528;SDS011;63009;52.584;5.932;2022-11-15T03:52:17;39.55;;;18.40;;
74528;SDS011;63009;52.584;5.932;2022-11-15T03:54:47;34.47;;;16.35;;
74528;SDS011;63009;52.584;5.932;2022-11-15T03:57:14;40.60;;;17.73;;
74528;SDS011;63009;52.584;5.932;2022-11-15T03:59:39;41.80;;;16.43;;
74528;SDS011;63009;52.584;5.932;2022-11-15T04:02:04;40.53;;;19.70;;
74528;SDS011;63009;52.584;5.932;2022-11-15T04:04:29;45.80;;;18.73;;
74528;SDS011;63009;52.584;5.932;2022-11-15T04:06:55;45.03;;;19.97;;
74528;SDS011;63009;52.584;5.932;2022-11-15T04:09:20;43.03;;;19.23;;
74528;SDS011;63009;52.584;5.932;2022-11-15T04:11:45;37.50;;;18.33;;
74528;SDS011;63009;52.584;5.932;2022-11-15T04:14:10;41.90;;;20.27;;
74528;SDS011;63009;52.584;5.932;2022-11-15T04:16:36;43.60;;;19.90;;
74528;SDS011;63009;52.584;5.932;2022-11-15T04:19:01;43.87;;;20.50;;
74528;SDS011;63009;52.584;5.932;2022-11-15T04:21:45;45.53;;;18.75;;
74528;SDS011;63009;52.584;5.932;2022-11-15T04:24:29;46.50;;;20.77;;
74528;SDS011;63009;52.584;5.932;2022-11-15T04:26:54;44.90;;;19.83;;
74528;SDS011;63009;52.584;5.932;2022-11-15T04:29:19;42.20;;;18.67;;
74528;SDS011;63009;52.584;5.932;2022-11-15T04:32:03;39.67;;;18.70;;
74528;SDS011;63009;52.584;5.932;2022-11-15T04:34:30;46.75;;;20.35;;
74528;SDS011;63009;52.584;5.932;2022-11-15T04:36:55;47.72;;;20.60;;
74528;SDS011;63009;52.584;5.932;2022-11-15T04:39:40;42.60;;;19.17;;
74528;SDS011;63009;52.584;5.932;2022-11-15T04:42:06;45.22;;;20.13;;
74528;SDS011;63009;52.584;5.932;2022-11-15T04:44:31;50.05;;;20.95;;
74528;SDS011;63009;52.584;5.932;2022-11-15T04:46:56;49.47;;;20.80;;
74528;SDS011;63009;52.584;5.932;2022-11-15T04:49:22;51.90;;;21.20;;
74528;SDS011;63009;52.584;5.932;2022-11-15T04:51:47;44.38;;;17.85;;
74528;SDS011;63009;52.584;5.932;2022-11-15T04:54:13;39.88;;;18.60;;
74528;SDS011;63009;52.584;5.932;2022-11-15T04:56:38;49.47;;;19.58;;
74528;SDS011;63009;52.584;5.932;2022-11-15T04:59:03;46.00;;;20.83;;
74528;SDS011;63009;52.584;5.932;2022-11-15T05:01:28;39.17;;;18.10;;
74528;SDS011;63009;52.584;5.932;2022-11-15T05:03:54;46.83;;;21.00;;
74528;SDS011;63009;52.584;5.932;2022-11-15T05:06:38;42.58;;;19.67;;
74528;SDS011;63009;52.584;5.932;2022-11-15T05:09:03;43.17;;;19.47;;
74528;SDS011;63009;52.584;5.932;2022-11-15T05:11:28;49.65;;;21.23;;
74528;SDS011;63009;52.584;5.932;2022-11-15T05:13:54;43.03;;;19.30;;
74528;SDS011;63009;52.584;5.932;2022-11-15T05:16:19;43.75;;;20.38;;
74528;SDS011;63009;52.584;5.932;2022-11-15T05:18:44;49.87;;;20.23;;
74528;SDS011;63009;52.584;5.932;2022-11-15T05:21:10;48.80;;;20.50;;
74528;SDS011;63009;52.584;5.932;2022-11-15T05:23:37;46.42;;;18.48;;
74528;SDS011;63009;52.584;5.932;2022-11-15T05:26:04;49.72;;;21.90;;
74528;SDS011;63009;52.584;5.932;2022-11-15T05:28:31;47.03;;;19.50;;
74528;SDS011;63009;52.584;5.932;2022-11-15T05:31:03;50.05;;;21.52;;
74528;SDS011;63009;52.584;5.932;2022-11-15T05:33:31;45.33;;;20.25;;
74528;SDS011;63009;52.584;5.932;2022-11-15T05:36:00;48.60;;;20.35;;
74528;SDS011;63009;52.584;5.932;2022-11-15T05:38:29;46.95;;;19.48;;
74528;SDS011;63009;52.584;5.932;2022-11-15T05:40:54;46.00;;;21.40;;
74528;SDS011;63009;52.584;5.932;2022-11-15T05:43:20;42.30;;;20.23;;
74528;SDS011;63009;52.584;5.932;2022-11-15T05:45:45;43.38;;;20.10;;
74528;SDS011;63009;52.584;5.932;2022-11-15T05:48:11;43.75;;;18.00;;
74528;SDS011;63009;52.584;5.932;2022-11-15T05:50:38;41.85;;;19.08;;
74528;SDS011;63009;52.584;5.932;2022-11-15T05:53:06;41.22;;;19.92;;
74528;SDS011;63009;52.584;5.932;2022-11-15T05:55:32;39.97;;;18.25;;
74528;SDS011;63009;52.584;5.932;2022-11-15T05:57:58;42.03;;;18.48;;
74528;SDS011;63009;52.584;5.932;2022-11-15T06:00:25;40.65;;;19.45;;
74528;SDS011;63009;52.584;5.932;2022-11-15T06:02:50;42.15;;;20.42;;
74528;SDS011;63009;52.584;5.932;2022-11-15T06:05:15;41.07;;;19.37;;
74528;SDS011;63009;52.584;5.932;2022-11-15T06:07:40;42.50;;;21.17;;
74528;SDS011;63009;52.584;5.932;2022-11-15T06:10:06;38.17;;;18.83;;
74528;SDS011;63009;52.584;5.932;2022-11-15T06:12:32;39.38;;;19.23;;
74528;SDS011;63009;52.584;5.932;2022-11-15T06:14:57;43.57;;;18.90;;
74528;SDS011;63009;52.584;5.932;2022-11-15T06:17:22;38.20;;;16.60;;
74528;SDS011;63009;52.584;5.932;2022-11-15T06:19:47;39.43;;;17.07;;
74528;SDS011;63009;52.584;5.932;2022-11-15T06:22:13;37.30;;;17.03;;
74528;SDS011;63009;52.584;5.932;2022-11-15T06:24:38;37.43;;;20.63;;
74528;SDS011;63009;52.584;5.932;2022-11-15T06:27:03;35.50;;;18.23;;
74528;SDS011;63009;52.584;5.932;2022-11-15T06:29:28;36.73;;;16.67;;
74528;SDS011;63009;52.584;5.932;2022-11-15T06:31:53;35.23;;;16.73;;
74528;SDS011;63009;52.584;5.932;2022-11-15T06:34:19;38.13;;;17.73;;
74528;SDS011;63009;52.584;5.932;2022-11-15T06:36:44;35.90;;;18.10;;
74528;SDS011;63009;52.584;5.932;2022-11-15T06:39:09;40.03;;;18.07;;
74528;SDS011;63009;52.584;5.932;2022-11-15T06:41:35;34.17;;;18.02;;
74528;SDS011;63009;52.584;5.932;2022-11-15T06:44:00;40.17;;;18.98;;
74528;SDS011;63009;52.584;5.932;2022-11-15T06:46:26;36.20;;;17.95;;
74528;SDS011;63009;52.584;5.932;2022-11-15T06:48:52;36.87;;;18.23;;
74528;SDS011;63009;52.584;5.932;2022-11-15T06:51:18;34.45;;;17.45;;
74528;SDS011;63009;52.584;5.932;2022-11-15T06:53:43;34.83;;;17.98;;
74528;SDS011;63009;52.584;5.932;2022-11-15T06:56:09;36.10;;;16.97;;
74528;SDS011;63009;52.584;5.932;2022-11-15T06:58:35;37.83;;;18.50;;
74528;SDS011;63009;52.584;5.932;2022-11-15T07:01:01;32.75;;;18.27;;
74528;SDS011;63009;52.584;5.932;2022-11-15T07:03:34;36.97;;;17.38;;
74528;SDS011;63009;52.584;5.932;2022-11-15T07:06:01;31.63;;;16.95;;
74528;SDS011;63009;52.584;5.932;2022-11-15T07:08:27;32.65;;;17.20;;
74528;SDS011;63009;52.584;5.932;2022-11-15T07:10:53;35.45;;;17.05;;
74528;SDS011;63009;52.584;5.932;2022-11-15T07:13:18;34.47;;;17.20;;
74528;SDS011;63009;52.584;5.932;2022-11-15T07:15:44;35.03;;;17.70;;
74528;SDS011;63009;52.584;5.932;2022-11-15T07:18:09;36.25;;;18.08;;
74528;SDS011;63009;52.584;5.932;2022-11-15T07:20:34;33.13;;;17.33;;
74528;SDS011;63009;52.584;5.932;2022-11-15T07:23:00;34.28;;;16.67;;
74528;SDS011;63009;52.584;5.932;2022-11-15T07:25:27;32.70;;;16.70;;
74528;SDS011;63009;52.584;5.932;2022-11-15T07:27:56;33.40;;;16.70;;
74528;SDS011;63009;52.584;5.932;2022-11-15T07:30:22;32.75;;;16.85;;
74528;SDS011;63009;52.584;5.932;2022-11-15T07:32:51;37.87;;;17.73;;
74528;SDS011;63009;52.584;5.932;2022-11-15T07:35:21;32.08;;;17.13;;
74528;SDS011;63009;52.584;5.932;2022-11-15T07:37:53;34.67;;;18.33;;
74528;SDS011;63009;52.584;5.932;2022-11-15T07:40:21;34.80;;;16.45;;
74528;SDS011;63009;52.584;5.932;2022-11-15T07:42:47;39.08;;;17.90;;
74528;SDS011;63009;52.584;5.932;2022-11-15T07:45:19;36.83;;;19.60;;
74528;SDS011;63009;52.584;5.932;2022-11-15T07:47:50;39.00;;;18.83;;
74528;SDS011;63009;52.584;5.932;2022-11-15T07:50:16;36.37;;;16.57;;
74528;SDS011;63009;52.584;5.932;2022-11-15T07:52:42;31.95;;;16.58;;
74528;SDS011;63009;52.584;5.932;2022-11-15T07:55:08;35.95;;;18.67;;
74528;SDS011;63009;52.584;5.932;2022-11-15T07:57:33;37.53;;;18.83;;
74528;SDS011;63009;52.584;5.932;2022-11-15T07:59:58;34.53;;;15.68;;
74528;SDS011;63009;52.584;5.932;2022-11-15T08:02:24;33.90;;;17.67;;
74528;SDS011;63009;52.584;5.932;2022-11-15T08:04:49;33.83;;;16.63;;
74528;SDS011;63009;52.584;5.932;2022-11-15T08:07:14;31.40;;;16.63;;
74528;SDS011;63009;52.584;5.932;2022-11-15T08:09:40;34.80;;;16.67;;
74528;SDS011;63009;52.584;5.932;2022-11-15T08:12:05;29.53;;;15.63;;
74528;SDS011;63009;52.584;5.932;2022-11-15T08:14:30;31.80;;;17.60;;
74528;SDS011;63009;52.584;5.932;2022-11-15T08:16:56;28.67;;;16.83;;
74528;SDS011;63009;52.584;5.932;2022-11-15T08:19:21;30.88;;;15.40;;
74528;SDS011;63009;52.584;5.932;2022-11-15T08:21:46;30.33;;;16.77;;
74528;SDS011;63009;52.584;5.932;2022-11-15T08:24:12;34.63;;;16.73;;
74528;SDS011;63009;52.584;5.932;2022-11-15T08:26:37;30.65;;;16.38;;
74528;SDS011;63009;52.584;5.932;2022-11-15T08:29:03;34.05;;;17.10;;
74528;SDS011;63009;52.584;5.932;2022-11-15T08:31:28;35.58;;;18.25;;
74528;SDS011;63009;52.584;5.932;2022-11-15T08:33:53;32.73;;;16.90;;
74528;SDS011;63009;52.584;5.932;2022-11-15T08:36:19;31.15;;;17.38;;
74528;SDS011;63009;52.584;5.932;2022-11-15T08:38:45;30.33;;;16.33;;
74528;SDS011;63009;52.584;5.932;2022-11-15T08:41:11;31.23;;;16.15;;
74528;SDS011;63009;52.584;5.932;2022-11-15T08:43:41;27.52;;;15.45;;
74528;SDS011;63009;52.584;5.932;2022-11-15T08:46:07;27.73;;;16.00;;
74528;SDS011;63009;52.584;5.932;2022-11-15T08:48:37;28.00;;;16.45;;
74528;SDS011;63009;52.584;5.932;2022-11-15T08:51:02;28.92;;;14.45;;
74528;SDS011;63009;52.584;5.932;2022-11-15T08:53:28;29.27;;;15.77;;
74528;SDS011;63009;52.584;5.932;2022-11-15T08:55:53;29.10;;;15.67;;
74528;SDS011;63009;52.584;5.932;2022-11-15T08:58:18;28.47;;;14.77;;
74528;SDS011;63009;52.584;5.932;2022-11-15T09:00:43;29.43;;;15.30;;
74528;SDS011;63009;52.584;5.932;2022-11-15T09:03:09;31.53;;;15.87;;
74528;SDS011;63009;52.584;5.932;2022-11-15T09:05:35;33.28;;;15.65;;
74528;SDS011;63009;52.584;5.932;2022-11-15T09:08:01;28.30;;;15.23;;
74528;SDS011;63009;52.584;5.932;2022-11-15T09:10:26;30.60;;;16.27;;
74528;SDS011;63009;52.584;5.932;2022-11-15T09:12:52;27.87;;;15.73;;
74528;SDS011;63009;52.584;5.932;2022-11-15T09:15:17;30.30;;;15.13;;
74528;SDS011;63009;52.584;5.932;2022-11-15T09:17:42;30.15;;;15.95;;
74528;SDS011;63009;52.584;5.932;2022-11-15T09:20:08;29.53;;;16.60;;
74528;SDS011;63009;52.584;5.932;2022-11-15T09:22:33;28.05;;;15.18;;
74528;SDS011;63009;52.584;5.932;2022-11-15T09:24:59;29.38;;;14.70;;
74528;SDS011;63009;52.584;5.932;2022-11-15T09:27:27;27.70;;;15.57;;
74528;SDS011;63009;52.584;5.932;2022-11-15T09:29:54;30.13;;;14.82;;
74528;SDS011;63009;52.584;5.932;2022-11-15T09:32:19;25.57;;;14.70;;
74528;SDS011;63009;52.584;5.932;2022-11-15T09:34:44;26.23;;;13.67;;
74528;SDS011;63009;52.584;5.932;2022-11-15T09:37:10;26.58;;;15.18;;
74528;SDS011;63009;52.584;5.932;2022-11-15T09:39:35;26.20;;;14.27;;
74528;SDS011;63009;52.584;5.932;2022-11-15T09:42:10;25.98;;;14.98;;
74528;SDS011;63009;52.584;5.932;2022-11-15T09:44:56;29.00;;;15.20;;
74528;SDS011;63009;52.584;5.932;2022-11-15T09:50:14;28.38;;;15.95;;
74528;SDS011;63009;52.584;5.932;2022-11-15T09:52:43;27.95;;;14.98;;
74528;SDS011;63009;52.584;5.932;2022-11-15T09:55:10;26.20;;;14.82;;
74528;SDS011;63009;52.584;5.932;2022-11-15T09:57:45;26.88;;;14.60;;
74528;SDS011;63009;52.584;5.932;2022-11-15T10:00:21;23.73;;;14.35;;
74528;SDS011;63009;52.584;5.932;2022-11-15T10:03:12;23.58;;;12.70;;
74528;SDS011;63009;52.584;5.932;2022-11-15T10:05:42;22.95;;;13.45;;
74528;SDS011;63009;52.584;5.932;2022-11-15T10:08:13;25.38;;;13.18;;
74528;SDS011;63009;52.584;5.932;2022-11-15T10:11:11;23.90;;;12.27;;
74528;SDS011;63009;52.584;5.932;2022-11-15T10:13:50;22.27;;;12.32;;
74528;SDS011;63009;52.584;5.932;2022-11-15T10:24:18;22.08;;;12.15;;
74528;SDS011;63009;52.584;5.932;2022-11-15T10:26:48;18.48;;;10.43;;
74528;SDS011;63009;52.584;5.932;2022-11-15T10:29:18;19.25;;;9.85;;
74528;SDS011;63009;52.584;5.932;2022-11-15T10:31:44;17.10;;;9.27;;
74528;SDS011;63009;52.584;5.932;2022-11-15T10:34:13;18.50;;;9.57;;
74528;SDS011;63009;52.584;5.932;2022-11-15T10:36:54;18.40;;;9.75;;
74528;SDS011;63009;52.584;5.932;2022-11-15T10:39:21;16.67;;;8.32;;
74528;SDS011;63009;52.584;5.932;2022-11-15T10:41:46;14.30;;;7.93;;
74528;SDS011;63009;52.584;5.932;2022-11-15T10:49:22;14.65;;;8.55;;
74528;SDS011;63009;52.584;5.932;2022-11-15T10:54:45;13.13;;;6.63;;
74528;SDS011;63009;52.584;5.932;2022-11-15T10:57:17;15.55;;;7.13;;
74528;SDS011;63009;52.584;5.932;2022-11-15T10:59:48;16.92;;;6.93;;
74528;SDS011;63009;52.584;5.932;2022-11-15T11:02:36;15.23;;;6.88;;
74528;SDS011;63009;52.584;5.932;2022-11-15T11:05:06;13.27;;;6.18;;
74528;SDS011;63009;52.584;5.932;2022-11-15T11:07:55;12.32;;;6.50;;
74528;SDS011;63009;52.584;5.932;2022-11-15T11:10:24;11.23;;;5.57;;
74528;SDS011;63009;52.584;5.932;2022-11-15T11:12:49;12.40;;;4.90;;
74528;SDS011;63009;52.584;5.932;2022-11-15T11:15:15;11.33;;;4.83;;
74528;SDS011;63009;52.584;5.932;2022-11-15T11:17:47;9.45;;;4.25;;
74528;SDS011;63009;52.584;5.932;2022-11-15T11:20:21;11.55;;;4.65;;
74528;SDS011;63009;52.584;5.932;2022-11-15T11:30:19;8.18;;;4.07;;
74528;SDS011;63009;52.584;5.932;2022-11-15T11:35:23;12.07;;;3.37;;
74528;SDS011;63009;52.584;5.932;2022-11-15T11:37:54;7.95;;;3.58;;
74528;SDS011;63009;52.584;5.932;2022-11-15T11:40:28;12.02;;;4.80;;
74528;SDS011;63009;52.584;5.932;2022-11-15T11:48:42;8.85;;;3.88;;
74528;SDS011;63009;52.584;5.932;2022-11-15T11:56:38;10.52;;;4.78;;
74528;SDS011;63009;52.584;5.932;2022-11-15T11:59:23;8.15;;;3.40;;
74528;SDS011;63009;52.584;5.932;2022-11-15T12:01:57;8.48;;;3.70;;
74528;SDS011;63009;52.584;5.932;2022-11-15T12:04:32;8.60;;;3.90;;
74528;SDS011;63009;52.584;5.932;2022-11-15T12:07:13;10.25;;;4.20;;
74528;SDS011;63009;52.584;5.932;2022-11-15T12:10:02;9.20;;;3.60;;
74528;SDS011;63009;52.584;5.932;2022-11-15T12:15:39;8.75;;;3.72;;
74528;SDS011;63009;52.584;5.932;2022-11-15T12:18:08;9.02;;;3.75;;
74528;SDS011;63009;52.584;5.932;2022-11-15T12:20:40;9.52;;;4.45;;
74528;SDS011;63009;52.584;5.932;2022-11-15T12:31:01;10.73;;;4.20;;
74528;SDS011;63009;52.584;5.932;2022-11-15T12:33:38;7.43;;;3.38;;
74528;SDS011;63009;52.584;5.932;2022-11-15T12:36:10;8.30;;;3.22;;
74528;SDS011;63009;52.584;5.932;2022-11-15T12:38:57;8.68;;;3.45;;
74528;SDS011;63009;52.584;5.932;2022-11-15T12:43:52;7.07;;;2.50;;
74528;SDS011;63009;52.584;5.932;2022-11-15T12:46:20;6.43;;;2.28;;
74528;SDS011;63009;52.584;5.932;2022-11-15T12:48:52;7.95;;;2.50;;
74528;SDS011;63009;52.584;5.932;2022-11-15T12:51:20;8.02;;;2.40;;
74528;SDS011;63009;52.584;5.932;2022-11-15T12:53:47;7.35;;;3.03;;
74528;SDS011;63009;52.584;5.932;2022-11-15T13:01:55;9.20;;;2.75;;
74528;SDS011;63009;52.584;5.932;2022-11-15T13:11:57;7.78;;;2.97;;
74528;SDS011;63009;52.584;5.932;2022-11-15T13:19:43;8.23;;;2.40;;
74528;SDS011;63009;52.584;5.932;2022-11-15T13:22:11;7.00;;;2.42;;
74528;SDS011;63009;52.584;5.932;2022-11-15T13:24:55;8.73;;;3.42;;
74528;SDS011;63009;52.584;5.932;2022-11-15T13:27:21;6.15;;;2.05;;
74528;SDS011;63009;52.584;5.932;2022-11-15T13:29:47;6.38;;;1.75;;
74528;SDS011;63009;52.584;5.932;2022-11-15T13:32:13;6.55;;;2.20;;
74528;SDS011;63009;52.584;5.932;2022-11-15T13:34:43;6.25;;;2.10;;
74528;SDS011;63009;52.584;5.932;2022-11-15T13:37:13;8.52;;;2.38;;
74528;SDS011;63009;52.584;5.932;2022-11-15T13:39:54;9.35;;;2.53;;
74528;SDS011;63009;52.584;5.932;2022-11-15T13:42:35;8.38;;;2.45;;
74528;SDS011;63009;52.584;5.932;2022-11-15T13:45:02;8.87;;;3.53;;
74528;SDS011;63009;52.584;5.932;2022-11-15T13:47:29;8.32;;;3.13;;
74528;SDS011;63009;52.584;5.932;2022-11-15T13:49:56;7.95;;;2.67;;
74528;SDS011;63009;52.584;5.932;2022-11-15T13:52:23;6.22;;;2.72;;
74528;SDS011;63009;52.584;5.932;2022-11-15T13:57:50;6.18;;;1.80;;
74528;SDS011;63009;52.584;5.932;2022-11-15T14:03:05;10.77;;;2.65;;
74528;SDS011;63009;52.584;5.932;2022-11-15T14:05:33;7.00;;;1.70;;
74528;SDS011;63009;52.584;5.932;2022-11-15T14:07:59;8.50;;;1.80;;
74528;SDS011;63009;52.584;5.932;2022-11-15T14:10:31;4.80;;;1.42;;
74528;SDS011;63009;52.584;5.932;2022-11-15T14:12:59;7.35;;;2.20;;
74528;SDS011;63009;52.584;5.932;2022-11-15T14:15:27;7.72;;;2.20;;
74528;SDS011;63009;52.584;5.932;2022-11-15T14:17:55;7.28;;;2.28;;
74528;SDS011;63009;52.584;5.932;2022-11-15T14:22:55;6.45;;;2.08;;
74528;SDS011;63009;52.584;5.932;2022-11-15T14:25:23;5.40;;;1.65;;
74528;SDS011;63009;52.584;5.932;2022-11-15T14:28:09;5.88;;;1.58;;
74528;SDS011;63009;52.584;5.932;2022-11-15T14:30:54;5.97;;;1.50;;
74528;SDS011;63009;52.584;5.932;2022-11-15T14:35:53;4.40;;;1.70;;
74528;SDS011;63009;52.584;5.932;2022-11-15T14:38:20;4.55;;;1.60;;
74528;SDS011;63009;52.584;5.932;2022-11-15T14:40:45;5.57;;;1.50;;
74528;SDS011;63009;52.584;5.932;2022-11-15T14:43:11;5.65;;;1.88;;
74528;SDS011;63009;52.584;5.932;2022-11-15T14:45:38;13.23;;;5.55;;
74528;SDS011;63009;52.584;5.932;2022-11-15T14:48:04;7.15;;;2.22;;
74528;SDS011;63009;52.584;5.932;2022-11-15T14:50:30;5.00;;;1.75;;
74528;SDS011;63009;52.584;5.932;2022-11-15T14:52:57;6.68;;;2.00;;
74528;SDS011;63009;52.584;5.932;2022-11-15T14:57:53;9.93;;;3.75;;
74528;SDS011;63009;52.584;5.932;2022-11-15T15:00:19;7.80;;;3.00;;
74528;SDS011;63009;52.584;5.932;2022-11-15T15:02:45;7.03;;;2.40;;
74528;SDS011;63009;52.584;5.932;2022-11-15T15:05:15;7.63;;;2.28;;
74528;SDS011;63009;52.584;5.932;2022-11-15T15:07:46;6.40;;;2.38;;
74528;SDS011;63009;52.584;5.932;2022-11-15T15:10:12;7.15;;;1.95;;
74528;SDS011;63009;52.584;5.932;2022-11-15T15:12:39;8.57;;;2.90;;
74528;SDS011;63009;52.584;5.932;2022-11-15T15:15:04;7.90;;;3.17;;
74528;SDS011;63009;52.584;5.932;2022-11-15T15:17:30;9.00;;;2.95;;
74528;SDS011;63009;52.584;5.932;2022-11-15T15:19:55;8.10;;;2.73;;
74528;SDS011;63009;52.584;5.932;2022-11-15T15:22:20;11.30;;;3.47;;
74528;SDS011;63009;52.584;5.932;2022-11-15T15:24:50;11.00;;;3.65;;
74528;SDS011;63009;52.584;5.932;2022-11-15T15:27:16;9.02;;;2.83;;
74528;SDS011;63009;52.584;5.932;2022-11-15T15:29:41;8.57;;;3.45;;
74528;SDS011;63009;52.584;5.932;2022-11-15T15:32:07;10.70;;;3.33;;
74528;SDS011;63009;52.584;5.932;2022-11-15T15:34:33;8.05;;;3.30;;
74528;SDS011;63009;52.584;5.932;2022-11-15T15:39:39;12.55;;;3.40;;
74528;SDS011;63009;52.584;5.932;2022-11-15T15:42:04;8.33;;;2.53;;
74528;SDS011;63009;52.584;5.932;2022-11-15T15:44:29;10.60;;;3.17;;
74528;SDS011;63009;52.584;5.932;2022-11-15T15:46:55;8.57;;;2.43;;
74528;SDS011;63009;52.584;5.932;2022-11-15T15:49:22;8.07;;;2.60;;
74528;SDS011;63009;52.584;5.932;2022-11-15T15:51:47;9.03;;;2.70;;
74528;SDS011;63009;52.584;5.932;2022-11-15T15:54:13;8.20;;;2.87;;
74528;SDS011;63009;52.584;5.932;2022-11-15T15:56:39;8.27;;;2.40;;
74528;SDS011;63009;52.584;5.932;2022-11-15T15:59:04;8.10;;;2.50;;
74528;SDS011;63009;52.584;5.932;2022-11-15T16:01:29;10.47;;;2.50;;
74528;SDS011;63009;52.584;5.932;2022-11-15T16:03:55;8.90;;;3.00;;
74528;SDS011;63009;52.584;5.932;2022-11-15T16:06:37;11.03;;;3.40;;
74528;SDS011;63009;52.584;5.932;2022-11-15T16:09:04;8.50;;;2.58;;
74528;SDS011;63009;52.584;5.932;2022-11-15T16:11:29;10.43;;;6.47;;
74528;SDS011;63009;52.584;5.932;2022-11-15T16:13:55;7.37;;;2.50;;
74528;SDS011;63009;52.584;5.932;2022-11-15T16:16:20;8.57;;;2.47;;
74528;SDS011;63009;52.584;5.932;2022-11-15T16:18:46;6.15;;;2.33;;
74528;SDS011;63009;52.584;5.932;2022-11-15T16:21:12;6.30;;;2.08;;
74528;SDS011;63009;52.584;5.932;2022-11-15T16:23:37;7.20;;;2.33;;
74528;SDS011;63009;52.584;5.932;2022-11-15T16:26:06;7.37;;;2.40;;
74528;SDS011;63009;52.584;5.932;2022-11-15T16:28:41;8.10;;;2.17;;
74528;SDS011;63009;52.584;5.932;2022-11-15T16:31:10;7.97;;;2.33;;
74528;SDS011;63009;52.584;5.932;2022-11-15T16:33:36;6.50;;;1.85;;
74528;SDS011;63009;52.584;5.932;2022-11-15T16:36:03;6.53;;;2.00;;
74528;SDS011;63009;52.584;5.932;2022-11-15T16:38:30;8.77;;;2.97;;
74528;SDS011;63009;52.584;5.932;2022-11-15T16:40:56;6.70;;;2.03;;
74528;SDS011;63009;52.584;5.932;2022-11-15T16:43:21;5.97;;;2.23;;